sensor_id;sensor_type;location;lat;lon;timestamp;P1;durP1;ratioP1;P2;durP2;ratioP2
19257;SDS011;9763;48.780;9.212;2023-09-08T00:01:13;3.13;;;2.83;;
19257;SDS011;9763;48.780;9.212;2023-09-08T00:04:55;3.70;;;3.40;;
19257;SDS011;9763;48.780;9.212;2023-09-08T00:08:37;3.40;;;3.10;;
19257;SDS011;9763;48.780;9.212;2023-09-08T00:12:19;3.40;;;3.10;;
19257;SDS011;9763;48.780;9.212;2023-09-08T00:16:01;3.03;;;2.80;;
19257;SDS011;9763;48.780;9.212;2023-09-08T00:19:44;3.50;;;2.63;;
19257;SDS011;9763;48.780;9.212;2023-09-08T00:23:26;3.30;;;3.00;;
19257;SDS011;9763;48.780;9.212;2023-09-08T00:27:08;4.07;;;3.20;;
19257;SDS011;9763;48.780;9.212;2023-09-08T00:30:50;3.20;;;2.90;;
19257;SDS011;9763;48.780;9.212;2023-09-08T00:34:32;3.20;;;2.90;;
19257;SDS011;9763;48.780;9.212;2023-09-08T00:38:15;3.30;;;2.80;;
19257;SDS011;9763;48.780;9.212;2023-09-08T00:41:57;3.30;;;3.00;;
19257;SDS011;9763;48.780;9.212;2023-09-08T00:45:40;6.03;;;3.10;;
19257;SDS011;9763;48.780;9.212;2023-09-08T00:49:25;3.03;;;2.67;;
19257;SDS011;9763;48.780;9.212;2023-09-08T00:53:08;3.80;;;3.30;;
19257;SDS011;9763;48.780;9.212;2023-09-08T01:00:37;3.80;;;3.17;;
19257;SDS011;9763;48.780;9.212;2023-09-08T01:04:19;2.73;;;2.53;;
19257;SDS011;9763;48.780;9.212;2023-09-08T01:08:02;3.17;;;2.87;;
19257;SDS011;9763;48.780;9.212;2023-09-08T01:11:45;3.23;;;2.90;;
19257;SDS011;9763;48.780;9.212;2023-09-08T01:15:30;3.27;;;3.00;;
19257;SDS011;9763;48.780;9.212;2023-09-08T01:19:13;3.53;;;3.23;;
19257;SDS011;9763;48.780;9.212;2023-09-08T01:23:03;3.03;;;2.83;;
19257;SDS011;9763;48.780;9.212;2023-09-08T01:27:03;3.83;;;2.90;;
19257;SDS011;9763;48.780;9.212;2023-09-08T01:30:47;2.73;;;2.53;;
19257;SDS011;9763;48.780;9.212;2023-09-08T01:34:30;2.53;;;2.33;;
19257;SDS011;9763;48.780;9.212;2023-09-08T01:38:14;3.17;;;2.80;;
19257;SDS011;9763;48.780;9.212;2023-09-08T01:41:55;3.37;;;2.37;;
19257;SDS011;9763;48.780;9.212;2023-09-08T01:45:39;3.03;;;2.70;;
19257;SDS011;9763;48.780;9.212;2023-09-08T01:49:22;3.20;;;2.90;;
19257;SDS011;9763;48.780;9.212;2023-09-08T01:53:04;3.13;;;2.83;;
19257;SDS011;9763;48.780;9.212;2023-09-08T01:56:46;2.90;;;2.70;;
19257;SDS011;9763;48.780;9.212;2023-09-08T02:00:29;2.50;;;2.30;;
19257;SDS011;9763;48.780;9.212;2023-09-08T02:04:14;3.00;;;2.70;;
19257;SDS011;9763;48.780;9.212;2023-09-08T02:07:55;3.20;;;2.90;;
19257;SDS011;9763;48.780;9.212;2023-09-08T02:11:37;2.70;;;2.50;;
19257;SDS011;9763;48.780;9.212;2023-09-08T02:15:19;3.17;;;2.80;;
19257;SDS011;9763;48.780;9.212;2023-09-08T02:19:01;2.73;;;2.53;;
19257;SDS011;9763;48.780;9.212;2023-09-08T02:22:45;2.70;;;2.50;;
19257;SDS011;9763;48.780;9.212;2023-09-08T02:26:29;2.57;;;2.37;;
19257;SDS011;9763;48.780;9.212;2023-09-08T02:30:13;2.83;;;2.50;;
19257;SDS011;9763;48.780;9.212;2023-09-08T02:33:56;2.67;;;2.47;;
19257;SDS011;9763;48.780;9.212;2023-09-08T02:37:38;2.37;;;2.17;;
19257;SDS011;9763;48.780;9.212;2023-09-08T02:41:22;2.90;;;2.70;;
19257;SDS011;9763;48.780;9.212;2023-09-08T02:45:05;2.73;;;2.50;;
19257;SDS011;9763;48.780;9.212;2023-09-08T02:48:48;2.97;;;2.67;;
19257;SDS011;9763;48.780;9.212;2023-09-08T02:52:31;3.20;;;2.43;;
19257;SDS011;9763;48.780;9.212;2023-09-08T02:56:14;2.37;;;2.17;;
19257;SDS011;9763;48.780;9.212;2023-09-08T02:59:57;2.87;;;2.67;;
19257;SDS011;9763;48.780;9.212;2023-09-08T03:03:40;2.57;;;2.37;;
19257;SDS011;9763;48.780;9.212;2023-09-08T03:07:23;2.43;;;2.23;;
19257;SDS011;9763;48.780;9.212;2023-09-08T03:11:05;2.20;;;2.00;;
19257;SDS011;9763;48.780;9.212;2023-09-08T03:14:49;2.40;;;2.20;;
19257;SDS011;9763;48.780;9.212;2023-09-08T03:18:33;2.70;;;2.50;;
19257;SDS011;9763;48.780;9.212;2023-09-08T03:22:17;3.50;;;2.77;;
19257;SDS011;9763;48.780;9.212;2023-09-08T03:25:59;2.47;;;2.27;;
19257;SDS011;9763;48.780;9.212;2023-09-08T03:29:41;2.60;;;2.40;;
19257;SDS011;9763;48.780;9.212;2023-09-08T03:33:23;2.50;;;2.30;;
19257;SDS011;9763;48.780;9.212;2023-09-08T03:37:07;2.67;;;2.47;;
19257;SDS011;9763;48.780;9.212;2023-09-08T03:40:50;3.37;;;2.70;;
19257;SDS011;9763;48.780;9.212;2023-09-08T03:44:32;2.40;;;2.20;;
19257;SDS011;9763;48.780;9.212;2023-09-08T03:48:14;2.60;;;2.40;;
19257;SDS011;9763;48.780;9.212;2023-09-08T03:51:57;2.57;;;2.37;;
19257;SDS011;9763;48.780;9.212;2023-09-08T03:55:41;3.70;;;2.57;;
19257;SDS011;9763;48.780;9.212;2023-09-08T03:59:23;2.70;;;2.50;;
19257;SDS011;9763;48.780;9.212;2023-09-08T04:03:05;2.53;;;2.27;;
19257;SDS011;9763;48.780;9.212;2023-09-08T04:06:47;2.50;;;2.30;;
19257;SDS011;9763;48.780;9.212;2023-09-08T04:10:29;3.10;;;2.80;;
19257;SDS011;9763;48.780;9.212;2023-09-08T04:14:12;3.30;;;3.00;;
19257;SDS011;9763;48.780;9.212;2023-09-08T04:17:55;3.23;;;2.93;;
19257;SDS011;9763;48.780;9.212;2023-09-08T04:21:38;3.30;;;3.00;;
19257;SDS011;9763;48.780;9.212;2023-09-08T04:25:22;3.33;;;3.07;;
19257;SDS011;9763;48.780;9.212;2023-09-08T04:29:05;2.70;;;2.50;;
19257;SDS011;9763;48.780;9.212;2023-09-08T04:32:48;3.20;;;2.90;;
19257;SDS011;9763;48.780;9.212;2023-09-08T04:36:31;3.00;;;2.70;;
19257;SDS011;9763;48.780;9.212;2023-09-08T04:40:13;3.20;;;2.93;;
19257;SDS011;9763;48.780;9.212;2023-09-08T04:43:56;3.20;;;2.47;;
19257;SDS011;9763;48.780;9.212;2023-09-08T04:47:38;2.70;;;2.50;;
19257;SDS011;9763;48.780;9.212;2023-09-08T04:51:22;3.13;;;2.77;;
19257;SDS011;9763;48.780;9.212;2023-09-08T04:55:06;3.30;;;3.00;;
19257;SDS011;9763;48.780;9.212;2023-09-08T04:58:49;4.07;;;2.97;;
19257;SDS011;9763;48.780;9.212;2023-09-08T05:02:33;2.50;;;2.30;;
19257;SDS011;9763;48.780;9.212;2023-09-08T05:06:16;3.40;;;2.73;;
19257;SDS011;9763;48.780;9.212;2023-09-08T05:09:59;3.10;;;2.90;;
19257;SDS011;9763;48.780;9.212;2023-09-08T05:13:46;3.90;;;3.20;;
19257;SDS011;9763;48.780;9.212;2023-09-08T05:17:28;3.70;;;2.70;;
19257;SDS011;9763;48.780;9.212;2023-09-08T05:21:10;3.20;;;2.73;;
19257;SDS011;9763;48.780;9.212;2023-09-08T05:24:54;4.70;;;2.77;;
19257;SDS011;9763;48.780;9.212;2023-09-08T05:28:39;3.43;;;3.13;;
19257;SDS011;9763;48.780;9.212;2023-09-08T05:32:23;3.80;;;3.50;;
19257;SDS011;9763;48.780;9.212;2023-09-08T05:36:06;3.60;;;3.30;;
19257;SDS011;9763;48.780;9.212;2023-09-08T05:39:48;3.87;;;3.50;;
19257;SDS011;9763;48.780;9.212;2023-09-08T05:43:30;4.00;;;3.10;;
19257;SDS011;9763;48.780;9.212;2023-09-08T05:47:15;3.60;;;3.30;;
19257;SDS011;9763;48.780;9.212;2023-09-08T05:50:58;3.33;;;3.03;;
19257;SDS011;9763;48.780;9.212;2023-09-08T05:54:42;3.30;;;3.00;;
19257;SDS011;9763;48.780;9.212;2023-09-08T05:58:25;3.43;;;2.67;;
19257;SDS011;9763;48.780;9.212;2023-09-08T06:02:08;3.70;;;2.57;;
19257;SDS011;9763;48.780;9.212;2023-09-08T06:05:33;2.97;;;2.63;;
19257;SDS011;9763;48.780;9.212;2023-09-08T06:08:59;3.13;;;2.87;;
19257;SDS011;9763;48.780;9.212;2023-09-08T06:12:22;3.60;;;3.30;;
19257;SDS011;9763;48.780;9.212;2023-09-08T06:15:46;4.60;;;3.40;;
19257;SDS011;9763;48.780;9.212;2023-09-08T06:22:37;3.40;;;3.10;;
19257;SDS011;9763;48.780;9.212;2023-09-08T06:26:00;3.60;;;3.30;;
19257;SDS011;9763;48.780;9.212;2023-09-08T06:29:27;6.60;;;3.37;;
19257;SDS011;9763;48.780;9.212;2023-09-08T06:32:50;3.80;;;3.40;;
19257;SDS011;9763;48.780;9.212;2023-09-08T06:36:14;3.70;;;3.40;;
19257;SDS011;9763;48.780;9.212;2023-09-08T06:39:39;3.70;;;3.10;;
19257;SDS011;9763;48.780;9.212;2023-09-08T06:43:02;2.90;;;2.60;;
19257;SDS011;9763;48.780;9.212;2023-09-08T06:46:42;3.30;;;3.00;;
19257;SDS011;9763;48.780;9.212;2023-09-08T06:50:06;5.90;;;3.20;;
19257;SDS011;9763;48.780;9.212;2023-09-08T06:53:31;3.73;;;2.73;;
19257;SDS011;9763;48.780;9.212;2023-09-08T06:56:57;5.00;;;3.10;;
19257;SDS011;9763;48.780;9.212;2023-09-08T07:00:20;3.30;;;3.00;;
19257;SDS011;9763;48.780;9.212;2023-09-08T07:03:44;3.07;;;2.80;;
19257;SDS011;9763;48.780;9.212;2023-09-08T07:07:09;2.90;;;2.70;;
19257;SDS011;9763;48.780;9.212;2023-09-08T07:10:33;2.83;;;2.63;;
19257;SDS011;9763;48.780;9.212;2023-09-08T07:13:58;2.70;;;2.50;;
19257;SDS011;9763;48.780;9.212;2023-09-08T07:17:22;2.80;;;2.60;;
19257;SDS011;9763;48.780;9.212;2023-09-08T07:20:47;2.70;;;2.50;;
19257;SDS011;9763;48.780;9.212;2023-09-08T07:24:12;2.60;;;2.20;;
19257;SDS011;9763;48.780;9.212;2023-09-08T07:27:36;2.57;;;2.37;;
19257;SDS011;9763;48.780;9.212;2023-09-08T07:31:03;2.97;;;2.63;;
19257;SDS011;9763;48.780;9.212;2023-09-08T07:34:31;2.93;;;2.60;;
19257;SDS011;9763;48.780;9.212;2023-09-08T07:37:54;2.80;;;2.60;;
19257;SDS011;9763;48.780;9.212;2023-09-08T07:41:19;2.57;;;2.37;;
19257;SDS011;9763;48.780;9.212;2023-09-08T07:44:42;3.37;;;2.73;;
19257;SDS011;9763;48.780;9.212;2023-09-08T07:48:08;2.60;;;2.40;;
19257;SDS011;9763;48.780;9.212;2023-09-08T07:51:31;3.00;;;2.80;;
19257;SDS011;9763;48.780;9.212;2023-09-08T07:55:14;2.60;;;2.40;;
19257;SDS011;9763;48.780;9.212;2023-09-08T07:58:56;2.63;;;2.43;;
19257;SDS011;9763;48.780;9.212;2023-09-08T08:02:39;2.63;;;2.43;;
19257;SDS011;9763;48.780;9.212;2023-09-08T08:06:28;3.47;;;2.53;;
19257;SDS011;9763;48.780;9.212;2023-09-08T08:10:10;3.37;;;2.77;;
19257;SDS011;9763;48.780;9.212;2023-09-08T08:13:53;2.90;;;2.70;;
19257;SDS011;9763;48.780;9.212;2023-09-08T08:17:36;2.93;;;2.40;;
19257;SDS011;9763;48.780;9.212;2023-09-08T08:21:19;2.50;;;2.30;;
19257;SDS011;9763;48.780;9.212;2023-09-08T08:25:04;2.80;;;2.60;;
19257;SDS011;9763;48.780;9.212;2023-09-08T08:28:50;2.90;;;2.50;;
19257;SDS011;9763;48.780;9.212;2023-09-08T08:32:32;3.57;;;2.47;;
19257;SDS011;9763;48.780;9.212;2023-09-08T08:36:14;2.57;;;2.37;;
19257;SDS011;9763;48.780;9.212;2023-09-08T08:39:56;2.73;;;2.40;;
19257;SDS011;9763;48.780;9.212;2023-09-08T08:43:40;3.30;;;2.30;;
19257;SDS011;9763;48.780;9.212;2023-09-08T08:47:24;6.43;;;2.60;;
19257;SDS011;9763;48.780;9.212;2023-09-08T08:51:09;3.53;;;2.40;;
19257;SDS011;9763;48.780;9.212;2023-09-08T08:54:53;3.90;;;2.47;;
19257;SDS011;9763;48.780;9.212;2023-09-08T08:58:35;2.50;;;2.30;;
19257;SDS011;9763;48.780;9.212;2023-09-08T09:02:22;3.70;;;2.63;;
19257;SDS011;9763;48.780;9.212;2023-09-08T09:06:06;3.10;;;2.40;;
19257;SDS011;9763;48.780;9.212;2023-09-08T09:09:48;2.60;;;2.40;;
19257;SDS011;9763;48.780;9.212;2023-09-08T09:13:32;2.60;;;2.40;;
19257;SDS011;9763;48.780;9.212;2023-09-08T09:17:14;5.60;;;2.37;;
19257;SDS011;9763;48.780;9.212;2023-09-08T09:20:58;2.43;;;2.23;;
19257;SDS011;9763;48.780;9.212;2023-09-08T09:24:41;2.80;;;2.60;;
19257;SDS011;9763;48.780;9.212;2023-09-08T09:28:24;2.50;;;2.30;;
19257;SDS011;9763;48.780;9.212;2023-09-08T09:32:10;2.37;;;2.17;;
19257;SDS011;9763;48.780;9.212;2023-09-08T09:35:52;2.27;;;2.07;;
19257;SDS011;9763;48.780;9.212;2023-09-08T09:39:36;2.07;;;1.87;;
19257;SDS011;9763;48.780;9.212;2023-09-08T09:43:20;4.50;;;2.03;;
19257;SDS011;9763;48.780;9.212;2023-09-08T09:47:03;3.50;;;2.43;;
19257;SDS011;9763;48.780;9.212;2023-09-08T09:50:47;3.77;;;2.10;;
19257;SDS011;9763;48.780;9.212;2023-09-08T09:54:29;2.50;;;2.30;;
19257;SDS011;9763;48.780;9.212;2023-09-08T09:58:12;7.63;;;2.50;;
19257;SDS011;9763;48.780;9.212;2023-09-08T10:01:56;3.13;;;2.23;;
19257;SDS011;9763;48.780;9.212;2023-09-08T10:05:38;2.33;;;1.80;;
19257;SDS011;9763;48.780;9.212;2023-09-08T10:09:20;3.47;;;2.00;;
19257;SDS011;9763;48.780;9.212;2023-09-08T10:13:05;2.40;;;2.20;;
19257;SDS011;9763;48.780;9.212;2023-09-08T10:16:51;2.43;;;2.20;;
19257;SDS011;9763;48.780;9.212;2023-09-08T10:20:40;4.50;;;2.00;;
19257;SDS011;9763;48.780;9.212;2023-09-08T10:24:24;2.30;;;2.10;;
19257;SDS011;9763;48.780;9.212;2023-09-08T10:28:09;2.23;;;2.03;;
19257;SDS011;9763;48.780;9.212;2023-09-08T10:31:53;2.60;;;2.40;;
19257;SDS011;9763;48.780;9.212;2023-09-08T10:35:37;2.67;;;1.80;;
19257;SDS011;9763;48.780;9.212;2023-09-08T10:39:27;2.13;;;1.93;;
19257;SDS011;9763;48.780;9.212;2023-09-08T10:43:15;5.47;;;2.23;;
19257;SDS011;9763;48.780;9.212;2023-09-08T10:47:01;2.13;;;1.93;;
19257;SDS011;9763;48.780;9.212;2023-09-08T10:50:44;3.00;;;2.10;;
19257;SDS011;9763;48.780;9.212;2023-09-08T10:54:40;2.53;;;1.63;;
19257;SDS011;9763;48.780;9.212;2023-09-08T10:58:29;2.30;;;2.10;;
19257;SDS011;9763;48.780;9.212;2023-09-08T11:06:16;2.10;;;1.90;;
19257;SDS011;9763;48.780;9.212;2023-09-08T11:09:59;2.83;;;2.00;;
19257;SDS011;9763;48.780;9.212;2023-09-08T11:13:41;3.10;;;2.00;;
19257;SDS011;9763;48.780;9.212;2023-09-08T11:17:26;2.50;;;2.30;;
19257;SDS011;9763;48.780;9.212;2023-09-08T11:21:10;3.30;;;2.00;;
19257;SDS011;9763;48.780;9.212;2023-09-08T11:24:52;3.00;;;2.10;;
19257;SDS011;9763;48.780;9.212;2023-09-08T11:28:36;2.40;;;2.20;;
19257;SDS011;9763;48.780;9.212;2023-09-08T11:32:19;2.47;;;2.27;;
19257;SDS011;9763;48.780;9.212;2023-09-08T11:36:01;2.43;;;2.23;;
19257;SDS011;9763;48.780;9.212;2023-09-08T11:39:44;2.20;;;2.00;;
19257;SDS011;9763;48.780;9.212;2023-09-08T11:43:27;2.20;;;2.00;;
19257;SDS011;9763;48.780;9.212;2023-09-08T11:47:12;2.37;;;2.00;;
19257;SDS011;9763;48.780;9.212;2023-09-08T11:50:56;2.10;;;1.80;;
19257;SDS011;9763;48.780;9.212;2023-09-08T11:54:38;2.10;;;1.90;;
19257;SDS011;9763;48.780;9.212;2023-09-08T11:58:36;2.40;;;2.20;;
19257;SDS011;9763;48.780;9.212;2023-09-08T12:02:19;2.10;;;2.00;;
19257;SDS011;9763;48.780;9.212;2023-09-08T12:06:02;1.97;;;1.87;;
19257;SDS011;9763;48.780;9.212;2023-09-08T12:09:45;3.60;;;2.10;;
19257;SDS011;9763;48.780;9.212;2023-09-08T12:13:27;2.30;;;2.10;;
19257;SDS011;9763;48.780;9.212;2023-09-08T12:17:11;2.60;;;2.03;;
19257;SDS011;9763;48.780;9.212;2023-09-08T12:21:02;2.60;;;2.40;;
19257;SDS011;9763;48.780;9.212;2023-09-08T12:24:47;2.60;;;2.40;;
19257;SDS011;9763;48.780;9.212;2023-09-08T12:28:31;2.10;;;1.90;;
19257;SDS011;9763;48.780;9.212;2023-09-08T12:32:15;2.60;;;2.40;;
19257;SDS011;9763;48.780;9.212;2023-09-08T12:35:57;2.40;;;2.17;;
19257;SDS011;9763;48.780;9.212;2023-09-08T12:39:40;2.53;;;2.33;;
19257;SDS011;9763;48.780;9.212;2023-09-08T12:43:22;2.60;;;2.20;;
19257;SDS011;9763;48.780;9.212;2023-09-08T12:47:08;2.20;;;2.00;;
19257;SDS011;9763;48.780;9.212;2023-09-08T12:50:53;2.40;;;2.20;;
19257;SDS011;9763;48.780;9.212;2023-09-08T12:54:34;2.40;;;2.17;;
19257;SDS011;9763;48.780;9.212;2023-09-08T12:58:17;2.10;;;1.90;;
19257;SDS011;9763;48.780;9.212;2023-09-08T13:01:58;3.00;;;2.80;;
19257;SDS011;9763;48.780;9.212;2023-09-08T13:05:41;2.83;;;2.50;;
19257;SDS011;9763;48.780;9.212;2023-09-08T13:09:24;2.90;;;2.70;;
19257;SDS011;9763;48.780;9.212;2023-09-08T13:13:06;2.30;;;2.10;;
19257;SDS011;9763;48.780;9.212;2023-09-08T13:16:49;2.50;;;2.30;;
19257;SDS011;9763;48.780;9.212;2023-09-08T13:20:31;2.60;;;2.40;;
19257;SDS011;9763;48.780;9.212;2023-09-08T13:24:12;2.47;;;2.27;;
19257;SDS011;9763;48.780;9.212;2023-09-08T13:27:56;3.53;;;2.17;;
19257;SDS011;9763;48.780;9.212;2023-09-08T13:31:38;2.70;;;2.50;;
19257;SDS011;9763;48.780;9.212;2023-09-08T13:35:20;3.30;;;2.17;;
19257;SDS011;9763;48.780;9.212;2023-09-08T13:39:02;2.40;;;2.20;;
19257;SDS011;9763;48.780;9.212;2023-09-08T13:42:44;3.83;;;1.90;;
19257;SDS011;9763;48.780;9.212;2023-09-08T13:46:29;2.50;;;2.30;;
19257;SDS011;9763;48.780;9.212;2023-09-08T13:50:11;2.53;;;2.33;;
19257;SDS011;9763;48.780;9.212;2023-09-08T13:53:56;2.63;;;2.17;;
19257;SDS011;9763;48.780;9.212;2023-09-08T13:57:39;2.00;;;1.80;;
19257;SDS011;9763;48.780;9.212;2023-09-08T14:01:22;2.50;;;2.30;;
19257;SDS011;9763;48.780;9.212;2023-09-08T14:05:07;2.30;;;2.10;;
19257;SDS011;9763;48.780;9.212;2023-09-08T14:08:50;2.70;;;2.37;;
19257;SDS011;9763;48.780;9.212;2023-09-08T14:12:36;2.40;;;2.20;;
19257;SDS011;9763;48.780;9.212;2023-09-08T14:16:18;3.33;;;2.40;;
19257;SDS011;9763;48.780;9.212;2023-09-08T14:20:00;2.40;;;2.20;;
19257;SDS011;9763;48.780;9.212;2023-09-08T14:23:44;3.20;;;1.90;;
19257;SDS011;9763;48.780;9.212;2023-09-08T14:27:27;2.80;;;2.10;;
19257;SDS011;9763;48.780;9.212;2023-09-08T14:31:08;2.10;;;1.90;;
19257;SDS011;9763;48.780;9.212;2023-09-08T14:34:51;2.83;;;2.53;;
19257;SDS011;9763;48.780;9.212;2023-09-08T14:38:33;2.60;;;2.40;;
19257;SDS011;9763;48.780;9.212;2023-09-08T14:42:17;2.57;;;2.07;;
19257;SDS011;9763;48.780;9.212;2023-09-08T14:45:59;3.13;;;2.30;;
19257;SDS011;9763;48.780;9.212;2023-09-08T14:49:43;2.47;;;2.27;;
19257;SDS011;9763;48.780;9.212;2023-09-08T14:53:25;2.40;;;2.20;;
19257;SDS011;9763;48.780;9.212;2023-09-08T14:57:08;2.70;;;2.50;;
19257;SDS011;9763;48.780;9.212;2023-09-08T15:00:51;3.00;;;2.13;;
19257;SDS011;9763;48.780;9.212;2023-09-08T15:04:33;2.50;;;2.30;;
19257;SDS011;9763;48.780;9.212;2023-09-08T15:08:16;2.43;;;2.23;;
19257;SDS011;9763;48.780;9.212;2023-09-08T15:11:58;2.47;;;2.27;;
19257;SDS011;9763;48.780;9.212;2023-09-08T15:15:40;1.93;;;1.83;;
19257;SDS011;9763;48.780;9.212;2023-09-08T15:19:24;4.23;;;2.23;;
19257;SDS011;9763;48.780;9.212;2023-09-08T15:23:06;2.10;;;1.90;;
19257;SDS011;9763;48.780;9.212;2023-09-08T15:26:49;2.40;;;2.20;;
19257;SDS011;9763;48.780;9.212;2023-09-08T15:30:31;2.70;;;2.50;;
19257;SDS011;9763;48.780;9.212;2023-09-08T15:34:13;2.23;;;2.03;;
19257;SDS011;9763;48.780;9.212;2023-09-08T15:37:56;2.07;;;1.80;;
19257;SDS011;9763;48.780;9.212;2023-09-08T15:41:38;2.07;;;1.87;;
19257;SDS011;9763;48.780;9.212;2023-09-08T15:45:20;2.43;;;2.23;;
19257;SDS011;9763;48.780;9.212;2023-09-08T15:49:02;3.50;;;2.10;;
19257;SDS011;9763;48.780;9.212;2023-09-08T15:52:45;3.03;;;2.00;;
19257;SDS011;9763;48.780;9.212;2023-09-08T15:56:29;2.33;;;2.13;;
19257;SDS011;9763;48.780;9.212;2023-09-08T16:00:12;2.03;;;1.83;;
19257;SDS011;9763;48.780;9.212;2023-09-08T16:03:55;2.50;;;2.30;;
19257;SDS011;9763;48.780;9.212;2023-09-08T16:07:37;2.50;;;2.30;;
19257;SDS011;9763;48.780;9.212;2023-09-08T16:11:21;2.20;;;2.00;;
19257;SDS011;9763;48.780;9.212;2023-09-08T16:15:05;2.13;;;1.93;;
19257;SDS011;9763;48.780;9.212;2023-09-08T16:18:49;3.00;;;1.97;;
19257;SDS011;9763;48.780;9.212;2023-09-08T16:22:31;2.60;;;2.40;;
19257;SDS011;9763;48.780;9.212;2023-09-08T16:26:14;2.73;;;2.53;;
19257;SDS011;9763;48.780;9.212;2023-09-08T16:29:55;2.37;;;2.17;;
19257;SDS011;9763;48.780;9.212;2023-09-08T16:33:39;2.70;;;2.33;;
19257;SDS011;9763;48.780;9.212;2023-09-08T16:37:22;2.47;;;2.27;;
19257;SDS011;9763;48.780;9.212;2023-09-08T16:41:04;2.50;;;2.30;;
19257;SDS011;9763;48.780;9.212;2023-09-08T16:44:46;2.40;;;2.20;;
19257;SDS011;9763;48.780;9.212;2023-09-08T16:48:29;2.30;;;2.10;;
19257;SDS011;9763;48.780;9.212;2023-09-08T16:52:12;2.33;;;2.13;;
19257;SDS011;9763;48.780;9.212;2023-09-08T16:55:54;2.53;;;2.33;;
19257;SDS011;9763;48.780;9.212;2023-09-08T16:59:36;2.30;;;2.10;;
19257;SDS011;9763;48.780;9.212;2023-09-08T17:03:18;2.50;;;2.10;;
19257;SDS011;9763;48.780;9.212;2023-09-08T17:07:00;2.00;;;1.80;;
19257;SDS011;9763;48.780;9.212;2023-09-08T17:10:43;2.37;;;2.13;;
19257;SDS011;9763;48.780;9.212;2023-09-08T17:14:28;2.40;;;2.20;;
19257;SDS011;9763;48.780;9.212;2023-09-08T17:18:10;2.13;;;1.93;;
19257;SDS011;9763;48.780;9.212;2023-09-08T17:21:52;2.50;;;2.30;;
19257;SDS011;9763;48.780;9.212;2023-09-08T17:25:34;2.50;;;2.30;;
19257;SDS011;9763;48.780;9.212;2023-09-08T17:29:18;4.43;;;2.10;;
19257;SDS011;9763;48.780;9.212;2023-09-08T17:33:00;2.30;;;2.10;;
19257;SDS011;9763;48.780;9.212;2023-09-08T17:36:42;2.77;;;2.20;;
19257;SDS011;9763;48.780;9.212;2023-09-08T17:40:25;2.70;;;2.50;;
19257;SDS011;9763;48.780;9.212;2023-09-08T17:44:07;2.50;;;2.30;;
19257;SDS011;9763;48.780;9.212;2023-09-08T17:47:50;2.30;;;2.10;;
19257;SDS011;9763;48.780;9.212;2023-09-08T17:51:33;3.17;;;2.70;;
19257;SDS011;9763;48.780;9.212;2023-09-08T17:55:15;2.60;;;2.40;;
19257;SDS011;9763;48.780;9.212;2023-09-08T17:58:58;2.23;;;2.03;;
19257;SDS011;9763;48.780;9.212;2023-09-08T18:02:40;2.70;;;2.50;;
19257;SDS011;9763;48.780;9.212;2023-09-08T18:06:24;2.37;;;2.17;;
19257;SDS011;9763;48.780;9.212;2023-09-08T18:10:06;2.60;;;2.40;;
19257;SDS011;9763;48.780;9.212;2023-09-08T18:13:49;2.50;;;2.20;;
19257;SDS011;9763;48.780;9.212;2023-09-08T18:17:31;2.77;;;2.57;;
19257;SDS011;9763;48.780;9.212;2023-09-08T18:21:13;2.50;;;2.30;;
19257;SDS011;9763;48.780;9.212;2023-09-08T18:24:57;2.40;;;2.20;;
19257;SDS011;9763;48.780;9.212;2023-09-08T18:28:41;4.07;;;2.30;;
19257;SDS011;9763;48.780;9.212;2023-09-08T18:32:23;2.60;;;2.40;;
19257;SDS011;9763;48.780;9.212;2023-09-08T18:36:05;2.40;;;2.20;;
19257;SDS011;9763;48.780;9.212;2023-09-08T18:39:48;2.80;;;2.40;;
19257;SDS011;9763;48.780;9.212;2023-09-08T18:43:31;2.90;;;2.23;;
19257;SDS011;9763;48.780;9.212;2023-09-08T18:47:14;2.50;;;2.30;;
19257;SDS011;9763;48.780;9.212;2023-09-08T18:50:56;2.20;;;2.00;;
19257;SDS011;9763;48.780;9.212;2023-09-08T18:54:39;2.57;;;2.37;;
19257;SDS011;9763;48.780;9.212;2023-09-08T18:58:21;2.70;;;2.50;;
19257;SDS011;9763;48.780;9.212;2023-09-08T19:02:06;3.37;;;2.40;;
19257;SDS011;9763;48.780;9.212;2023-09-08T19:05:48;3.33;;;3.03;;
19257;SDS011;9763;48.780;9.212;2023-09-08T19:09:30;3.90;;;3.37;;
19257;SDS011;9763;48.780;9.212;2023-09-08T19:13:11;5.00;;;3.90;;
19257;SDS011;9763;48.780;9.212;2023-09-08T19:16:54;4.20;;;3.77;;
19257;SDS011;9763;48.780;9.212;2023-09-08T19:20:39;7.27;;;4.10;;
19257;SDS011;9763;48.780;9.212;2023-09-08T19:24:22;6.07;;;5.47;;
19257;SDS011;9763;48.780;9.212;2023-09-08T19:28:05;5.77;;;4.80;;
19257;SDS011;9763;48.780;9.212;2023-09-08T19:31:47;4.53;;;4.13;;
19257;SDS011;9763;48.780;9.212;2023-09-08T19:35:29;4.37;;;3.97;;
19257;SDS011;9763;48.780;9.212;2023-09-08T19:39:15;4.70;;;4.10;;
19257;SDS011;9763;48.780;9.212;2023-09-08T19:42:58;3.73;;;3.33;;
19257;SDS011;9763;48.780;9.212;2023-09-08T19:46:40;4.20;;;3.33;;
19257;SDS011;9763;48.780;9.212;2023-09-08T19:50:22;4.23;;;3.83;;
19257;SDS011;9763;48.780;9.212;2023-09-08T19:54:04;3.80;;;3.30;;
19257;SDS011;9763;48.780;9.212;2023-09-08T19:57:47;4.10;;;3.70;;
19257;SDS011;9763;48.780;9.212;2023-09-08T20:01:29;4.73;;;3.80;;
19257;SDS011;9763;48.780;9.212;2023-09-08T20:05:12;5.57;;;4.20;;
19257;SDS011;9763;48.780;9.212;2023-09-08T20:08:54;4.43;;;3.87;;
19257;SDS011;9763;48.780;9.212;2023-09-08T20:12:36;4.17;;;3.70;;
19257;SDS011;9763;48.780;9.212;2023-09-08T20:16:22;4.90;;;4.00;;
19257;SDS011;9763;48.780;9.212;2023-09-08T20:20:05;4.40;;;3.80;;
19257;SDS011;9763;48.780;9.212;2023-09-08T20:23:50;4.50;;;4.10;;
19257;SDS011;9763;48.780;9.212;2023-09-08T20:27:32;5.07;;;4.50;;
19257;SDS011;9763;48.780;9.212;2023-09-08T20:31:14;4.60;;;4.20;;
19257;SDS011;9763;48.780;9.212;2023-09-08T20:34:58;4.67;;;4.27;;
19257;SDS011;9763;48.780;9.212;2023-09-08T20:38:40;4.73;;;4.23;;
19257;SDS011;9763;48.780;9.212;2023-09-08T20:42:22;5.20;;;4.63;;
19257;SDS011;9763;48.780;9.212;2023-09-08T20:46:04;4.53;;;4.10;;
19257;SDS011;9763;48.780;9.212;2023-09-08T20:49:48;7.30;;;3.97;;
19257;SDS011;9763;48.780;9.212;2023-09-08T20:53:31;4.73;;;4.23;;
19257;SDS011;9763;48.780;9.212;2023-09-08T20:57:17;6.43;;;3.73;;
19257;SDS011;9763;48.780;9.212;2023-09-08T21:00:59;4.00;;;3.70;;
19257;SDS011;9763;48.780;9.212;2023-09-08T21:04:42;4.37;;;3.97;;
19257;SDS011;9763;48.780;9.212;2023-09-08T21:08:24;3.67;;;3.30;;
19257;SDS011;9763;48.780;9.212;2023-09-08T21:12:08;4.37;;;3.97;;
19257;SDS011;9763;48.780;9.212;2023-09-08T21:15:50;4.33;;;3.93;;
19257;SDS011;9763;48.780;9.212;2023-09-08T21:19:32;4.50;;;4.10;;
19257;SDS011;9763;48.780;9.212;2023-09-08T21:23:14;4.90;;;4.40;;
19257;SDS011;9763;48.780;9.212;2023-09-08T21:26:56;5.13;;;4.63;;
19257;SDS011;9763;48.780;9.212;2023-09-08T21:30:39;4.70;;;4.07;;
19257;SDS011;9763;48.780;9.212;2023-09-08T21:34:21;4.70;;;4.30;;
19257;SDS011;9763;48.780;9.212;2023-09-08T21:38:04;4.80;;;4.30;;
19257;SDS011;9763;48.780;9.212;2023-09-08T21:41:46;5.10;;;4.13;;
19257;SDS011;9763;48.780;9.212;2023-09-08T21:45:28;5.37;;;4.87;;
19257;SDS011;9763;48.780;9.212;2023-09-08T21:49:11;4.80;;;4.40;;
19257;SDS011;9763;48.780;9.212;2023-09-08T21:52:53;5.10;;;4.60;;
19257;SDS011;9763;48.780;9.212;2023-09-08T21:56:35;6.00;;;5.30;;
19257;SDS011;9763;48.780;9.212;2023-09-08T22:00:18;5.00;;;4.50;;
19257;SDS011;9763;48.780;9.212;2023-09-08T22:04:02;5.50;;;5.00;;
19257;SDS011;9763;48.780;9.212;2023-09-08T22:07:46;5.50;;;5.00;;
19257;SDS011;9763;48.780;9.212;2023-09-08T22:11:28;4.90;;;4.50;;
19257;SDS011;9763;48.780;9.212;2023-09-08T22:15:11;4.83;;;4.43;;
19257;SDS011;9763;48.780;9.212;2023-09-08T22:18:52;5.23;;;4.50;;
19257;SDS011;9763;48.780;9.212;2023-09-08T22:22:34;4.87;;;4.47;;
19257;SDS011;9763;48.780;9.212;2023-09-08T22:26:18;5.07;;;4.67;;
19257;SDS011;9763;48.780;9.212;2023-09-08T22:30:00;4.80;;;4.40;;
19257;SDS011;9763;48.780;9.212;2023-09-08T22:33:44;3.83;;;3.53;;
19257;SDS011;9763;48.780;9.212;2023-09-08T22:37:26;4.27;;;3.97;;
19257;SDS011;9763;48.780;9.212;2023-09-08T22:41:08;5.23;;;4.30;;
19257;SDS011;9763;48.780;9.212;2023-09-08T22:44:51;4.70;;;4.30;;